Gildeskaal — LLDI — position and weather

sailwx.info

Track history (hours):
 
Tides and Currents Weather Stations Pressure Air Temp Water Temp Dewpoint Dewpoint Depression Visibility Wind Speed Wind Dir Waves Ship Positions

Gildeskaal

Last reported at 2016-Oct-30 08:33 UTC. Time now 2016-Dec-05 20:34 UTC.
Position N 67°25' E 014°27'.
Warning: this ship's position is 36 days out of date.

Length 52 m; draft 3.2 m.

Type: Ship. MMSI: 259680000.

Date/timePositionNaut miles runAvg speedWind from/ knotsBaromVisibWave heightAir tempDewpointWater temp
2016-Oct-30 08:33N 67°25' E 014°27'9 9.4
2016-Oct-30 07:33N 67°17' E 014°15'14 1.1
2016-Oct-29 19:20N 67°04' E 014°04'0 0.0
2016-Oct-29 18:23N 67°04' E 014°04'0 0.0
2016-Oct-29 16:33N 67°04' E 014°04'1 0.6
2016-Oct-29 14:28N 67°05' E 014°01'1 0.4
2016-Oct-29 11:24N 67°04' E 014°04'2 1.2
2016-Oct-29 09:33N 67°06' E 014°00'1 0.4
2016-Oct-29 06:33N 67°05' E 014°03'3 1.7
2016-Oct-29 04:33N 67°08' E 013°59'0 0.0
2016-Oct-29 02:33N 67°08' E 013°59'0 0.0
2016-Oct-28 23:33N 67°08' E 013°59'0 0.0
2016-Oct-28 21:33N 67°08' E 013°59'0 0.0
2016-Oct-28 19:33N 67°08' E 013°59'3 0.7
2016-Oct-28 15:33N 67°05' E 013°59'1 0.7
2016-Oct-28 14:33N 67°05' E 014°01'1 0.2
2016-Oct-28 09:33N 67°06' E 013°59'2 2.4
2016-Oct-28 08:33N 67°08' E 013°59'2 1.7
2016-Oct-28 07:33N 67°07' E 013°59'2 0.2
2016-Oct-28 00:33N 67°08' E 013°59'0 0.0
2016-Oct-27 23:33N 67°08' E 013°59'0 0.0
2016-Oct-27 21:33N 67°08' E 013°59'2 0.5
2016-Oct-27 17:33N 67°06' E 013°59'2 0.9
2016-Oct-27 15:33N 67°08' E 013°59'0 0.0
2016-Oct-27 11:33N 67°08' E 013°59'2 1.0
2016-Oct-27 09:31N 67°06' E 013°59'2 0.4
2016-Oct-27 05:31N 67°05' E 014°02'3 3.5
2016-Oct-27 04:33N 67°08' E 013°59'0 0.0
2016-Oct-27 03:33N 67°08' E 013°59'0 0.0
2016-Oct-27 00:33N 67°08' E 013°59'0 0.0
2016-Oct-26 21:33N 67°08' E 013°59'1 0.2
2016-Oct-26 16:33N 67°07' E 013°59'2 2.0
2016-Oct-26 15:29N 67°05' E 014°00'3 1.0
2016-Oct-26 12:33N 67°08' E 013°59'0 0.0
2016-Oct-26 11:33N 67°08' E 013°59'3 2.6
2016-Oct-26 10:33N 67°06' E 013°59'0 0.3
2016-Oct-26 09:33N 67°06' E 013°59'2 2.3
2016-Oct-26 08:33N 67°08' E 013°59'2 1.9
2016-Oct-26 07:33N 67°06' E 013°59'2 0.6
2016-Oct-26 04:33N 67°08' E 013°59'0 0.0
2016-Oct-26 03:33N 67°08' E 013°59'0 0.0
2016-Oct-25 23:33N 67°08' E 013°59'0 0.0
2016-Oct-25 21:33N 67°08' E 013°59'0 0.0
2016-Oct-25 20:33N 67°08' E 013°59'2 0.7
2016-Oct-25 17:33N 67°06' E 013°59'1 0.8
2016-Oct-25 16:33N 67°05' E 013°59'3 2.9
2016-Oct-25 15:33N 67°08' E 013°59'3 1.7
2016-Oct-25 13:30N 67°05' E 014°02'3 3.7
2016-Oct-25 12:33N 67°08' E 013°59'3 1.3
2016-Oct-25 10:33N 67°06' E 013°59'1 0.4
2016-Oct-25 07:33N 67°07' E 013°59'2 1.0
2016-Oct-25 05:31N 67°05' E 014°02'3 3.6
2016-Oct-25 04:33N 67°08' E 013°59'0 0.0
2016-Oct-25 03:33N 67°08' E 013°59'0 0.0
2016-Oct-25 02:33N 67°08' E 013°59'0 0.0
2016-Oct-24 21:33N 67°08' E 013°59'0 0.0
2016-Oct-24 20:33N 67°08' E 013°59'3 1.6
2016-Oct-24 18:33N 67°05' E 014°01'2 0.3
2016-Oct-24 13:28N 67°04' E 014°04'3 0.5
2016-Oct-24 07:33N 67°07' E 013°58'2 1.0
2016-Oct-24 05:32N 67°05' E 014°02'3 3.5
2016-Oct-24 04:33N 67°08' E 013°59'0 0.0
2016-Oct-24 01:33N 67°08' E 013°59'0 0.0
2016-Oct-23 22:33N 67°08' E 013°59'1 0.2
2016-Oct-23 16:33N 67°07' E 013°59'1 0.7
2016-Oct-23 14:33N 67°08' E 013°59'1 1.5
2016-Oct-23 13:33N 67°07' E 013°59'3 1.0
2016-Oct-23 10:31N 67°04' E 014°04'0 0.0
2016-Oct-23 09:32N 67°04' E 014°04'3 1.6
2016-Oct-23 07:33N 67°07' E 013°59'1 0.1
2016-Oct-22 15:33N 67°05' E 013°60'2 0.3
2016-Oct-22 10:08N 67°04' E 014°04'4 2.8
2016-Oct-22 08:33N 67°08' E 013°59'2 1.8
2016-Oct-22 07:33N 67°06' E 013°59'2 0.6
2016-Oct-22 04:33N 67°08' E 013°59'0 0.0
2016-Oct-22 00:33N 67°08' E 013°59'0 0.0
2016-Oct-21 23:33N 67°08' E 013°59'0 0.0
2016-Oct-21 21:33N 67°08' E 013°59'31 6.2
2016-Oct-21 16:33N 67°39' E 014°15'9 8.2
2016-Oct-21 15:25N 67°48' E 014°20'6 0.2
2016-Oct-20 10:03N 67°41' E 014°21'5 7.3
2016-Oct-20 09:25N 67°37' E 014°22'  
Track history (hours):
 
Tides and Currents Weather Stations Pressure Air Temp Water Temp Dewpoint Dewpoint Depression Visibility Wind Speed Wind Dir Waves Ship Positions

Gildeskaal

Last reported at 2016-Oct-30 08:33 UTC. Time now 2016-Dec-05 20:34 UTC.
Position N 67°25' E 014°27'.
Warning: this ship's position is 36 days out of date.

Length 52 m; draft 3.2 m.

Type: Ship. MMSI: 259680000.

Date/timePositionNaut miles runAvg speedWind from/ knotsBaromVisibWave heightAir tempDewpointWater temp
2016-Oct-30 08:33N 67°25' E 014°27'9 9.4
2016-Oct-30 07:33N 67°17' E 014°15'14 1.1
2016-Oct-29 19:20N 67°04' E 014°04'0 0.0
2016-Oct-29 18:23N 67°04' E 014°04'0 0.0
2016-Oct-29 16:33N 67°04' E 014°04'1 0.6
2016-Oct-29 14:28N 67°05' E 014°01'1 0.4
2016-Oct-29 11:24N 67°04' E 014°04'2 1.2
2016-Oct-29 09:33N 67°06' E 014°00'1 0.4
2016-Oct-29 06:33N 67°05' E 014°03'3 1.7
2016-Oct-29 04:33N 67°08' E 013°59'0 0.0
2016-Oct-29 02:33N 67°08' E 013°59'0 0.0
2016-Oct-28 23:33N 67°08' E 013°59'0 0.0
2016-Oct-28 21:33N 67°08' E 013°59'0 0.0
2016-Oct-28 19:33N 67°08' E 013°59'3 0.7
2016-Oct-28 15:33N 67°05' E 013°59'1 0.7
2016-Oct-28 14:33N 67°05' E 014°01'1 0.2
2016-Oct-28 09:33N 67°06' E 013°59'2 2.4
2016-Oct-28 08:33N 67°08' E 013°59'2 1.7
2016-Oct-28 07:33N 67°07' E 013°59'2 0.2
2016-Oct-28 00:33N 67°08' E 013°59'0 0.0
2016-Oct-27 23:33N 67°08' E 013°59'0 0.0
2016-Oct-27 21:33N 67°08' E 013°59'2 0.5
2016-Oct-27 17:33N 67°06' E 013°59'2 0.9
2016-Oct-27 15:33N 67°08' E 013°59'0 0.0
2016-Oct-27 11:33N 67°08' E 013°59'2 1.0
2016-Oct-27 09:31N 67°06' E 013°59'2 0.4
2016-Oct-27 05:31N 67°05' E 014°02'3 3.5
2016-Oct-27 04:33N 67°08' E 013°59'0 0.0
2016-Oct-27 03:33N 67°08' E 013°59'0 0.0
2016-Oct-27 00:33N 67°08' E 013°59'0 0.0
2016-Oct-26 21:33N 67°08' E 013°59'1 0.2
2016-Oct-26 16:33N 67°07' E 013°59'2 2.0
2016-Oct-26 15:29N 67°05' E 014°00'3 1.0
2016-Oct-26 12:33N 67°08' E 013°59'0 0.0
2016-Oct-26 11:33N 67°08' E 013°59'3 2.6
2016-Oct-26 10:33N 67°06' E 013°59'0 0.3
2016-Oct-26 09:33N 67°06' E 013°59'2 2.3
2016-Oct-26 08:33N 67°08' E 013°59'2 1.9
2016-Oct-26 07:33N 67°06' E 013°59'2 0.6
2016-Oct-26 04:33N 67°08' E 013°59'0 0.0
2016-Oct-26 03:33N 67°08' E 013°59'0 0.0
2016-Oct-25 23:33N 67°08' E 013°59'0 0.0
2016-Oct-25 21:33N 67°08' E 013°59'0 0.0
2016-Oct-25 20:33N 67°08' E 013°59'2 0.7
2016-Oct-25 17:33N 67°06' E 013°59'1 0.8
2016-Oct-25 16:33N 67°05' E 013°59'3 2.9
2016-Oct-25 15:33N 67°08' E 013°59'3 1.7
2016-Oct-25 13:30N 67°05' E 014°02'3 3.7
2016-Oct-25 12:33N 67°08' E 013°59'3 1.3
2016-Oct-25 10:33N 67°06' E 013°59'1 0.4
2016-Oct-25 07:33N 67°07' E 013°59'2 1.0
2016-Oct-25 05:31N 67°05' E 014°02'3 3.6
2016-Oct-25 04:33N 67°08' E 013°59'0 0.0
2016-Oct-25 03:33N 67°08' E 013°59'0 0.0
2016-Oct-25 02:33N 67°08' E 013°59'0 0.0
2016-Oct-24 21:33N 67°08' E 013°59'0 0.0
2016-Oct-24 20:33N 67°08' E 013°59'3 1.6
2016-Oct-24 18:33N 67°05' E 014°01'2 0.3
2016-Oct-24 13:28N 67°04' E 014°04'3 0.5
2016-Oct-24 07:33N 67°07' E 013°58'2 1.0
2016-Oct-24 05:32N 67°05' E 014°02'3 3.5
2016-Oct-24 04:33N 67°08' E 013°59'0 0.0
2016-Oct-24 01:33N 67°08' E 013°59'0 0.0
2016-Oct-23 22:33N 67°08' E 013°59'1 0.2
2016-Oct-23 16:33N 67°07' E 013°59'1 0.7
2016-Oct-23 14:33N 67°08' E 013°59'1 1.5
2016-Oct-23 13:33N 67°07' E 013°59'3 1.0
2016-Oct-23 10:31N 67°04' E 014°04'0 0.0
2016-Oct-23 09:32N 67°04' E 014°04'3 1.6
2016-Oct-23 07:33N 67°07' E 013°59'1 0.1
2016-Oct-22 15:33N 67°05' E 013°60'2 0.3
2016-Oct-22 10:08N 67°04' E 014°04'4 2.8
2016-Oct-22 08:33N 67°08' E 013°59'2 1.8
2016-Oct-22 07:33N 67°06' E 013°59'2 0.6
2016-Oct-22 04:33N 67°08' E 013°59'0 0.0
2016-Oct-22 00:33N 67°08' E 013°59'0 0.0
2016-Oct-21 23:33N 67°08' E 013°59'0 0.0
2016-Oct-21 21:33N 67°08' E 013°59'31 6.2
2016-Oct-21 16:33N 67°39' E 014°15'9 8.2
2016-Oct-21 15:25N 67°48' E 014°20'6 0.2
2016-Oct-20 10:03N 67°41' E 014°21'5 7.3
2016-Oct-20 09:25N 67°37' E 014°22'  

Dump ship's entire track history